sensor_id;sensor_type;location;lat;lon;timestamp;P1;durP1;ratioP1;P2;durP2;ratioP2
10315;SDS011;5203;48.976;8.306;2022-11-20T00:01:42;8.57;;;7.77;;
10315;SDS011;5203;48.976;8.306;2022-11-20T00:04:08;8.93;;;8.13;;
10315;SDS011;5203;48.976;8.306;2022-11-20T00:06:35;9.03;;;8.23;;
10315;SDS011;5203;48.976;8.306;2022-11-20T00:09:01;9.07;;;8.17;;
10315;SDS011;5203;48.976;8.306;2022-11-20T00:11:27;9.17;;;8.27;;
10315;SDS011;5203;48.976;8.306;2022-11-20T00:13:55;9.20;;;8.33;;
10315;SDS011;5203;48.976;8.306;2022-11-20T00:16:23;8.93;;;8.07;;
10315;SDS011;5203;48.976;8.306;2022-11-20T00:18:50;9.60;;;8.80;;
10315;SDS011;5203;48.976;8.306;2022-11-20T00:21:17;9.90;;;9.10;;
10315;SDS011;5203;48.976;8.306;2022-11-20T00:23:44;9.57;;;8.57;;
10315;SDS011;5203;48.976;8.306;2022-11-20T00:26:11;10.30;;;9.30;;
10315;SDS011;5203;48.976;8.306;2022-11-20T00:28:40;8.47;;;7.77;;
10315;SDS011;5203;48.976;8.306;2022-11-20T00:31:10;10.63;;;8.90;;
10315;SDS011;5203;48.976;8.306;2022-11-20T00:33:38;9.63;;;8.73;;
10315;SDS011;5203;48.976;8.306;2022-11-20T00:36:05;10.27;;;9.27;;
10315;SDS011;5203;48.976;8.306;2022-11-20T00:38:32;8.87;;;8.03;;
10315;SDS011;5203;48.976;8.306;2022-11-20T00:40:59;9.00;;;8.20;;
10315;SDS011;5203;48.976;8.306;2022-11-20T00:43:29;10.30;;;9.30;;
10315;SDS011;5203;48.976;8.306;2022-11-20T00:45:56;9.23;;;8.43;;
10315;SDS011;5203;48.976;8.306;2022-11-20T00:48:23;9.67;;;8.77;;
10315;SDS011;5203;48.976;8.306;2022-11-20T00:50:49;9.73;;;8.77;;
10315;SDS011;5203;48.976;8.306;2022-11-20T00:53:14;10.47;;;9.37;;
10315;SDS011;5203;48.976;8.306;2022-11-20T00:55:40;9.33;;;8.37;;
10315;SDS011;5203;48.976;8.306;2022-11-20T00:58:06;10.00;;;9.07;;
10315;SDS011;5203;48.976;8.306;2022-11-20T01:00:31;8.73;;;7.93;;
10315;SDS011;5203;48.976;8.306;2022-11-20T01:02:57;9.93;;;9.03;;
10315;SDS011;5203;48.976;8.306;2022-11-20T01:05:23;9.67;;;8.77;;
10315;SDS011;5203;48.976;8.306;2022-11-20T01:07:49;8.90;;;8.20;;
10315;SDS011;5203;48.976;8.306;2022-11-20T01:10:14;9.53;;;8.63;;
10315;SDS011;5203;48.976;8.306;2022-11-20T01:12:40;9.00;;;8.20;;
10315;SDS011;5203;48.976;8.306;2022-11-20T01:15:06;9.70;;;8.80;;
10315;SDS011;5203;48.976;8.306;2022-11-20T01:17:33;9.67;;;8.77;;
10315;SDS011;5203;48.976;8.306;2022-11-20T01:19:58;10.83;;;9.83;;
10315;SDS011;5203;48.976;8.306;2022-11-20T01:22:24;9.87;;;8.87;;
10315;SDS011;5203;48.976;8.306;2022-11-20T01:24:50;8.63;;;7.83;;
10315;SDS011;5203;48.976;8.306;2022-11-20T01:27:15;10.10;;;9.13;;
10315;SDS011;5203;48.976;8.306;2022-11-20T01:29:41;9.67;;;8.67;;
10315;SDS011;5203;48.976;8.306;2022-11-20T01:32:07;10.90;;;9.90;;
10315;SDS011;5203;48.976;8.306;2022-11-20T01:34:32;10.47;;;9.47;;
10315;SDS011;5203;48.976;8.306;2022-11-20T01:36:58;9.23;;;8.23;;
10315;SDS011;5203;48.976;8.306;2022-11-20T01:39:24;10.37;;;9.37;;
10315;SDS011;5203;48.976;8.306;2022-11-20T01:41:51;9.63;;;8.63;;
10315;SDS011;5203;48.976;8.306;2022-11-20T01:44:45;9.27;;;8.37;;
10315;SDS011;5203;48.976;8.306;2022-11-20T01:49:54;8.53;;;7.63;;
10315;SDS011;5203;48.976;8.306;2022-11-20T01:52:24;9.53;;;8.13;;
10315;SDS011;5203;48.976;8.306;2022-11-20T01:55:02;8.77;;;7.87;;
10315;SDS011;5203;48.976;8.306;2022-11-20T01:57:32;8.23;;;7.50;;
10315;SDS011;5203;48.976;8.306;2022-11-20T02:00:08;8.97;;;7.33;;
10315;SDS011;5203;48.976;8.306;2022-11-20T02:02:36;8.40;;;7.60;;
10315;SDS011;5203;48.976;8.306;2022-11-20T02:05:09;8.90;;;8.00;;
10315;SDS011;5203;48.976;8.306;2022-11-20T02:07:43;8.57;;;7.67;;
10315;SDS011;5203;48.976;8.306;2022-11-20T02:10:09;8.67;;;7.87;;
10315;SDS011;5203;48.976;8.306;2022-11-20T02:12:36;8.60;;;7.80;;
10315;SDS011;5203;48.976;8.306;2022-11-20T02:15:20;8.30;;;7.57;;
10315;SDS011;5203;48.976;8.306;2022-11-20T02:17:46;8.53;;;7.80;;
10315;SDS011;5203;48.976;8.306;2022-11-20T02:20:12;9.40;;;8.23;;
10315;SDS011;5203;48.976;8.306;2022-11-20T02:22:41;8.60;;;7.70;;
10315;SDS011;5203;48.976;8.306;2022-11-20T02:25:15;9.77;;;8.50;;
10315;SDS011;5203;48.976;8.306;2022-11-20T02:27:42;8.87;;;7.93;;
10315;SDS011;5203;48.976;8.306;2022-11-20T02:30:08;8.53;;;7.73;;
10315;SDS011;5203;48.976;8.306;2022-11-20T02:32:36;8.03;;;7.23;;
10315;SDS011;5203;48.976;8.306;2022-11-20T02:37:43;9.73;;;7.87;;
10315;SDS011;5203;48.976;8.306;2022-11-20T02:40:12;8.57;;;7.30;;
10315;SDS011;5203;48.976;8.306;2022-11-20T02:42:38;9.03;;;8.10;;
10315;SDS011;5203;48.976;8.306;2022-11-20T02:45:04;8.53;;;7.70;;
10315;SDS011;5203;48.976;8.306;2022-11-20T02:47:31;8.20;;;7.40;;
10315;SDS011;5203;48.976;8.306;2022-11-20T02:49:57;7.57;;;6.87;;
10315;SDS011;5203;48.976;8.306;2022-11-20T02:52:23;8.00;;;7.20;;
10315;SDS011;5203;48.976;8.306;2022-11-20T02:54:49;8.40;;;7.60;;
10315;SDS011;5203;48.976;8.306;2022-11-20T02:57:15;8.23;;;7.47;;
10315;SDS011;5203;48.976;8.306;2022-11-20T02:59:40;8.47;;;7.77;;
10315;SDS011;5203;48.976;8.306;2022-11-20T03:02:06;7.93;;;7.23;;
10315;SDS011;5203;48.976;8.306;2022-11-20T03:04:32;8.97;;;7.10;;
10315;SDS011;5203;48.976;8.306;2022-11-20T03:06:57;7.60;;;6.80;;
10315;SDS011;5203;48.976;8.306;2022-11-20T03:09:23;7.80;;;6.53;;
10315;SDS011;5203;48.976;8.306;2022-11-20T03:11:49;7.80;;;6.73;;
10315;SDS011;5203;48.976;8.306;2022-11-20T03:14:15;7.77;;;6.73;;
10315;SDS011;5203;48.976;8.306;2022-11-20T03:16:40;7.73;;;6.83;;
10315;SDS011;5203;48.976;8.306;2022-11-20T03:19:06;8.50;;;7.03;;
10315;SDS011;5203;48.976;8.306;2022-11-20T03:21:32;7.43;;;6.73;;
10315;SDS011;5203;48.976;8.306;2022-11-20T03:23:58;7.60;;;6.93;;
10315;SDS011;5203;48.976;8.306;2022-11-20T03:26:25;7.60;;;6.90;;
10315;SDS011;5203;48.976;8.306;2022-11-20T03:28:55;7.33;;;6.37;;
10315;SDS011;5203;48.976;8.306;2022-11-20T03:31:31;7.67;;;6.87;;
10315;SDS011;5203;48.976;8.306;2022-11-20T03:34:02;7.07;;;6.47;;
10315;SDS011;5203;48.976;8.306;2022-11-20T03:36:28;7.90;;;6.47;;
10315;SDS011;5203;48.976;8.306;2022-11-20T03:38:55;7.77;;;6.53;;
10315;SDS011;5203;48.976;8.306;2022-11-20T03:41:26;7.27;;;6.00;;
10315;SDS011;5203;48.976;8.306;2022-11-20T03:43:54;6.87;;;6.00;;
10315;SDS011;5203;48.976;8.306;2022-11-20T03:46:21;7.30;;;6.60;;
10315;SDS011;5203;48.976;8.306;2022-11-20T03:48:47;7.20;;;6.03;;
10315;SDS011;5203;48.976;8.306;2022-11-20T03:51:14;6.73;;;5.97;;
10315;SDS011;5203;48.976;8.306;2022-11-20T03:53:42;7.83;;;6.83;;
10315;SDS011;5203;48.976;8.306;2022-11-20T03:56:09;7.10;;;6.40;;
10315;SDS011;5203;48.976;8.306;2022-11-20T03:58:36;7.23;;;6.53;;
10315;SDS011;5203;48.976;8.306;2022-11-20T04:01:14;6.70;;;5.87;;
10315;SDS011;5203;48.976;8.306;2022-11-20T04:03:42;6.40;;;5.80;;
10315;SDS011;5203;48.976;8.306;2022-11-20T04:06:10;6.23;;;5.63;;
10315;SDS011;5203;48.976;8.306;2022-11-20T04:08:38;6.70;;;6.10;;
10315;SDS011;5203;48.976;8.306;2022-11-20T04:11:39;6.27;;;5.50;;
10315;SDS011;5203;48.976;8.306;2022-11-20T04:13:58;5.90;;;5.33;;
10315;SDS011;5203;48.976;8.306;2022-11-20T04:16:25;6.10;;;5.50;;
10315;SDS011;5203;48.976;8.306;2022-11-20T04:18:54;5.77;;;5.27;;
10315;SDS011;5203;48.976;8.306;2022-11-20T04:21:22;6.40;;;5.77;;
10315;SDS011;5203;48.976;8.306;2022-11-20T04:23:48;6.30;;;5.70;;
10315;SDS011;5203;48.976;8.306;2022-11-20T04:26:14;6.37;;;5.80;;
10315;SDS011;5203;48.976;8.306;2022-11-20T04:28:40;7.00;;;5.60;;
10315;SDS011;5203;48.976;8.306;2022-11-20T04:31:10;5.90;;;5.40;;
10315;SDS011;5203;48.976;8.306;2022-11-20T04:33:38;5.60;;;5.10;;
10315;SDS011;5203;48.976;8.306;2022-11-20T04:36:05;6.97;;;5.70;;
10315;SDS011;5203;48.976;8.306;2022-11-20T04:38:36;6.50;;;5.90;;
10315;SDS011;5203;48.976;8.306;2022-11-20T04:41:03;6.57;;;5.90;;
10315;SDS011;5203;48.976;8.306;2022-11-20T04:43:31;6.23;;;5.63;;
10315;SDS011;5203;48.976;8.306;2022-11-20T04:45:57;6.47;;;5.87;;
10315;SDS011;5203;48.976;8.306;2022-11-20T04:48:24;6.13;;;5.53;;
10315;SDS011;5203;48.976;8.306;2022-11-20T04:50:51;6.73;;;6.07;;
10315;SDS011;5203;48.976;8.306;2022-11-20T04:53:17;6.80;;;6.07;;
10315;SDS011;5203;48.976;8.306;2022-11-20T04:55:44;7.50;;;6.67;;
10315;SDS011;5203;48.976;8.306;2022-11-20T04:58:10;7.13;;;6.50;;
10315;SDS011;5203;48.976;8.306;2022-11-20T05:00:36;7.73;;;6.10;;
10315;SDS011;5203;48.976;8.306;2022-11-20T05:03:02;7.23;;;5.93;;
10315;SDS011;5203;48.976;8.306;2022-11-20T05:05:27;7.17;;;6.47;;
10315;SDS011;5203;48.976;8.306;2022-11-20T05:07:55;7.07;;;6.37;;
10315;SDS011;5203;48.976;8.306;2022-11-20T05:10:24;7.17;;;6.27;;
10315;SDS011;5203;48.976;8.306;2022-11-20T05:12:50;6.67;;;5.97;;
10315;SDS011;5203;48.976;8.306;2022-11-20T05:15:16;6.73;;;6.10;;
10315;SDS011;5203;48.976;8.306;2022-11-20T05:17:51;6.70;;;5.90;;
10315;SDS011;5203;48.976;8.306;2022-11-20T05:20:18;5.70;;;5.10;;
10315;SDS011;5203;48.976;8.306;2022-11-20T05:22:44;6.27;;;5.47;;
10315;SDS011;5203;48.976;8.306;2022-11-20T05:25:10;6.40;;;5.70;;
10315;SDS011;5203;48.976;8.306;2022-11-20T05:27:37;8.60;;;6.30;;
10315;SDS011;5203;48.976;8.306;2022-11-20T05:30:06;6.90;;;5.50;;
10315;SDS011;5203;48.976;8.306;2022-11-20T05:32:32;6.73;;;5.50;;
10315;SDS011;5203;48.976;8.306;2022-11-20T05:34:59;7.00;;;5.83;;
10315;SDS011;5203;48.976;8.306;2022-11-20T05:37:25;6.10;;;5.50;;
10315;SDS011;5203;48.976;8.306;2022-11-20T05:39:50;6.00;;;5.40;;
10315;SDS011;5203;48.976;8.306;2022-11-20T05:42:16;6.20;;;5.20;;
10315;SDS011;5203;48.976;8.306;2022-11-20T05:45:00;6.20;;;5.57;;
10315;SDS011;5203;48.976;8.306;2022-11-20T05:47:31;6.10;;;5.43;;
10315;SDS011;5203;48.976;8.306;2022-11-20T05:49:58;7.97;;;4.80;;
10315;SDS011;5203;48.976;8.306;2022-11-20T05:52:24;7.93;;;5.50;;
10315;SDS011;5203;48.976;8.306;2022-11-20T05:54:52;6.50;;;5.00;;
10315;SDS011;5203;48.976;8.306;2022-11-20T05:57:18;5.93;;;5.20;;
10315;SDS011;5203;48.976;8.306;2022-11-20T05:59:43;5.83;;;5.00;;
10315;SDS011;5203;48.976;8.306;2022-11-20T06:02:09;5.30;;;4.80;;
10315;SDS011;5203;48.976;8.306;2022-11-20T06:04:35;5.87;;;4.93;;
10315;SDS011;5203;48.976;8.306;2022-11-20T06:07:00;6.37;;;5.00;;
10315;SDS011;5203;48.976;8.306;2022-11-20T06:09:26;4.73;;;4.23;;
10315;SDS011;5203;48.976;8.306;2022-11-20T06:11:52;8.33;;;4.90;;
10315;SDS011;5203;48.976;8.306;2022-11-20T06:14:18;5.10;;;4.60;;
10315;SDS011;5203;48.976;8.306;2022-11-20T06:16:43;4.83;;;4.43;;
10315;SDS011;5203;48.976;8.306;2022-11-20T06:19:09;5.47;;;4.90;;
10315;SDS011;5203;48.976;8.306;2022-11-20T06:21:35;6.10;;;4.30;;
10315;SDS011;5203;48.976;8.306;2022-11-20T06:24:00;6.00;;;4.70;;
10315;SDS011;5203;48.976;8.306;2022-11-20T06:26:26;4.40;;;4.00;;
10315;SDS011;5203;48.976;8.306;2022-11-20T06:28:53;7.10;;;5.07;;
10315;SDS011;5203;48.976;8.306;2022-11-20T06:31:23;5.63;;;4.30;;
10315;SDS011;5203;48.976;8.306;2022-11-20T06:33:50;5.27;;;4.77;;
10315;SDS011;5203;48.976;8.306;2022-11-20T06:36:17;5.53;;;4.10;;
10315;SDS011;5203;48.976;8.306;2022-11-20T06:38:44;4.70;;;4.20;;
10315;SDS011;5203;48.976;8.306;2022-11-20T06:41:12;5.80;;;4.90;;
10315;SDS011;5203;48.976;8.306;2022-11-20T06:43:39;7.10;;;4.80;;
10315;SDS011;5203;48.976;8.306;2022-11-20T06:46:05;5.50;;;4.40;;
10315;SDS011;5203;48.976;8.306;2022-11-20T06:48:31;5.07;;;4.60;;
10315;SDS011;5203;48.976;8.306;2022-11-20T06:50:57;5.50;;;4.40;;
10315;SDS011;5203;48.976;8.306;2022-11-20T06:53:23;4.97;;;4.43;;
10315;SDS011;5203;48.976;8.306;2022-11-20T06:55:50;4.70;;;4.30;;
10315;SDS011;5203;48.976;8.306;2022-11-20T06:58:16;6.60;;;4.50;;
10315;SDS011;5203;48.976;8.306;2022-11-20T07:00:43;4.67;;;4.27;;
10315;SDS011;5203;48.976;8.306;2022-11-20T07:03:09;4.93;;;4.40;;
10315;SDS011;5203;48.976;8.306;2022-11-20T07:05:36;4.47;;;4.07;;
10315;SDS011;5203;48.976;8.306;2022-11-20T07:08:03;4.87;;;4.40;;
10315;SDS011;5203;48.976;8.306;2022-11-20T07:10:30;4.70;;;4.30;;
10315;SDS011;5203;48.976;8.306;2022-11-20T07:12:56;4.50;;;4.10;;
10315;SDS011;5203;48.976;8.306;2022-11-20T07:15:22;5.57;;;4.07;;
10315;SDS011;5203;48.976;8.306;2022-11-20T07:17:49;4.33;;;3.97;;
10315;SDS011;5203;48.976;8.306;2022-11-20T07:20:15;4.73;;;3.70;;
10315;SDS011;5203;48.976;8.306;2022-11-20T07:22:41;4.53;;;3.90;;
10315;SDS011;5203;48.976;8.306;2022-11-20T07:25:08;4.30;;;3.90;;
10315;SDS011;5203;48.976;8.306;2022-11-20T07:27:35;4.87;;;3.97;;
10315;SDS011;5203;48.976;8.306;2022-11-20T07:30:01;5.00;;;4.03;;
10315;SDS011;5203;48.976;8.306;2022-11-20T07:32:28;4.80;;;4.00;;
10315;SDS011;5203;48.976;8.306;2022-11-20T07:34:54;4.40;;;4.00;;
10315;SDS011;5203;48.976;8.306;2022-11-20T07:37:20;4.87;;;4.33;;
10315;SDS011;5203;48.976;8.306;2022-11-20T07:39:45;5.40;;;4.30;;
10315;SDS011;5203;48.976;8.306;2022-11-20T07:42:11;4.60;;;3.97;;
10315;SDS011;5203;48.976;8.306;2022-11-20T07:44:38;4.57;;;4.17;;
10315;SDS011;5203;48.976;8.306;2022-11-20T07:47:04;4.97;;;4.47;;
10315;SDS011;5203;48.976;8.306;2022-11-20T07:49:30;5.77;;;4.57;;
10315;SDS011;5203;48.976;8.306;2022-11-20T07:51:56;5.73;;;4.20;;
10315;SDS011;5203;48.976;8.306;2022-11-20T07:54:22;4.83;;;4.33;;
10315;SDS011;5203;48.976;8.306;2022-11-20T07:56:48;5.90;;;5.30;;
10315;SDS011;5203;48.976;8.306;2022-11-20T07:59:14;5.40;;;5.00;;
10315;SDS011;5203;48.976;8.306;2022-11-20T08:01:41;6.70;;;5.53;;
10315;SDS011;5203;48.976;8.306;2022-11-20T08:04:08;5.67;;;5.13;;
10315;SDS011;5203;48.976;8.306;2022-11-20T08:06:35;6.23;;;5.63;;
10315;SDS011;5203;48.976;8.306;2022-11-20T08:09:01;6.73;;;5.80;;
10315;SDS011;5203;48.976;8.306;2022-11-20T08:11:28;5.90;;;5.40;;
10315;SDS011;5203;48.976;8.306;2022-11-20T08:14:12;5.80;;;5.30;;
10315;SDS011;5203;48.976;8.306;2022-11-20T08:16:47;5.53;;;5.03;;
10315;SDS011;5203;48.976;8.306;2022-11-20T08:19:14;5.70;;;5.20;;
10315;SDS011;5203;48.976;8.306;2022-11-20T08:21:41;6.30;;;5.37;;
10315;SDS011;5203;48.976;8.306;2022-11-20T08:24:09;6.30;;;5.43;;
10315;SDS011;5203;48.976;8.306;2022-11-20T08:26:36;5.67;;;5.17;;
10315;SDS011;5203;48.976;8.306;2022-11-20T08:29:03;7.70;;;5.33;;
10315;SDS011;5203;48.976;8.306;2022-11-20T08:31:29;5.50;;;5.00;;
10315;SDS011;5203;48.976;8.306;2022-11-20T08:33:55;6.50;;;5.47;;
10315;SDS011;5203;48.976;8.306;2022-11-20T08:36:21;6.00;;;5.13;;
10315;SDS011;5203;48.976;8.306;2022-11-20T08:38:48;6.83;;;5.73;;
10315;SDS011;5203;48.976;8.306;2022-11-20T08:41:15;5.57;;;5.07;;
10315;SDS011;5203;48.976;8.306;2022-11-20T08:46:18;6.10;;;5.23;;
10315;SDS011;5203;48.976;8.306;2022-11-20T08:48:44;5.87;;;5.37;;
10315;SDS011;5203;48.976;8.306;2022-11-20T08:51:10;5.63;;;5.03;;
10315;SDS011;5203;48.976;8.306;2022-11-20T08:53:36;6.37;;;5.00;;
10315;SDS011;5203;48.976;8.306;2022-11-20T08:56:03;6.00;;;5.40;;
10315;SDS011;5203;48.976;8.306;2022-11-20T08:58:29;5.17;;;4.77;;
10315;SDS011;5203;48.976;8.306;2022-11-20T09:03:28;5.10;;;4.60;;
10315;SDS011;5203;48.976;8.306;2022-11-20T09:05:58;4.90;;;4.50;;
10315;SDS011;5203;48.976;8.306;2022-11-20T09:08:31;5.20;;;4.70;;
10315;SDS011;5203;48.976;8.306;2022-11-20T09:10:57;6.67;;;4.50;;
10315;SDS011;5203;48.976;8.306;2022-11-20T09:13:24;5.10;;;4.60;;
10315;SDS011;5203;48.976;8.306;2022-11-20T09:15:54;5.10;;;4.70;;
10315;SDS011;5203;48.976;8.306;2022-11-20T09:18:24;8.80;;;4.77;;
10315;SDS011;5203;48.976;8.306;2022-11-20T09:20:51;5.47;;;4.47;;
10315;SDS011;5203;48.976;8.306;2022-11-20T09:23:16;5.80;;;4.23;;
10315;SDS011;5203;48.976;8.306;2022-11-20T09:25:43;5.30;;;4.80;;
10315;SDS011;5203;48.976;8.306;2022-11-20T09:28:08;5.23;;;4.67;;
10315;SDS011;5203;48.976;8.306;2022-11-20T09:30:34;5.30;;;4.80;;
10315;SDS011;5203;48.976;8.306;2022-11-20T09:33:00;5.40;;;4.57;;
10315;SDS011;5203;48.976;8.306;2022-11-20T09:35:26;5.20;;;4.80;;
10315;SDS011;5203;48.976;8.306;2022-11-20T09:37:51;5.43;;;4.60;;
10315;SDS011;5203;48.976;8.306;2022-11-20T09:45:44;6.03;;;5.40;;
10315;SDS011;5203;48.976;8.306;2022-11-20T09:54:41;5.40;;;4.90;;
10315;SDS011;5203;48.976;8.306;2022-11-20T09:57:10;6.17;;;4.83;;
10315;SDS011;5203;48.976;8.306;2022-11-20T10:02:48;5.70;;;5.17;;
10315;SDS011;5203;48.976;8.306;2022-11-20T10:05:11;5.33;;;4.83;;
10315;SDS011;5203;48.976;8.306;2022-11-20T10:08:08;6.70;;;5.10;;
10315;SDS011;5203;48.976;8.306;2022-11-20T10:10:46;5.00;;;4.60;;
10315;SDS011;5203;48.976;8.306;2022-11-20T10:22:10;7.00;;;4.80;;
10315;SDS011;5203;48.976;8.306;2022-11-20T10:25:00;6.87;;;5.13;;
10315;SDS011;5203;48.976;8.306;2022-11-20T10:30:21;6.17;;;5.50;;
10315;SDS011;5203;48.976;8.306;2022-11-20T10:33:00;6.63;;;5.00;;
10315;SDS011;5203;48.976;8.306;2022-11-20T10:38:36;6.53;;;5.40;;
10315;SDS011;5203;48.976;8.306;2022-11-20T10:41:22;4.97;;;4.47;;
10315;SDS011;5203;48.976;8.306;2022-11-20T10:44:00;6.13;;;4.30;;
10315;SDS011;5203;48.976;8.306;2022-11-20T10:46:40;8.43;;;4.67;;
10315;SDS011;5203;48.976;8.306;2022-11-20T10:49:14;5.07;;;4.57;;
10315;SDS011;5203;48.976;8.306;2022-11-20T11:00:11;6.37;;;4.60;;
10315;SDS011;5203;48.976;8.306;2022-11-20T11:05:27;5.43;;;3.90;;
10315;SDS011;5203;48.976;8.306;2022-11-20T11:07:55;4.27;;;3.60;;
10315;SDS011;5203;48.976;8.306;2022-11-20T11:10:46;7.07;;;4.30;;
10315;SDS011;5203;48.976;8.306;2022-11-20T11:13:19;5.23;;;3.90;;
10315;SDS011;5203;48.976;8.306;2022-11-20T11:15:52;6.10;;;3.63;;
10315;SDS011;5203;48.976;8.306;2022-11-20T11:20:52;3.93;;;3.60;;
10315;SDS011;5203;48.976;8.306;2022-11-20T11:23:30;5.27;;;4.20;;
10315;SDS011;5203;48.976;8.306;2022-11-20T11:26:02;3.20;;;2.83;;
10315;SDS011;5203;48.976;8.306;2022-11-20T11:28:29;6.40;;;3.50;;
10315;SDS011;5203;48.976;8.306;2022-11-20T11:30:55;4.93;;;3.07;;
10315;SDS011;5203;48.976;8.306;2022-11-20T11:33:22;5.27;;;3.57;;
10315;SDS011;5203;48.976;8.306;2022-11-20T11:35:49;5.53;;;3.73;;
10315;SDS011;5203;48.976;8.306;2022-11-20T11:38:22;5.70;;;3.20;;
10315;SDS011;5203;48.976;8.306;2022-11-20T11:40:57;3.33;;;2.90;;
10315;SDS011;5203;48.976;8.306;2022-11-20T11:43:24;4.47;;;3.57;;
10315;SDS011;5203;48.976;8.306;2022-11-20T11:46:53;3.40;;;3.10;;
10315;SDS011;5203;48.976;8.306;2022-11-20T11:51:39;4.33;;;2.97;;
10315;SDS011;5203;48.976;8.306;2022-11-20T11:54:19;3.60;;;3.20;;
10315;SDS011;5203;48.976;8.306;2022-11-20T11:56:51;5.90;;;3.83;;
10315;SDS011;5203;48.976;8.306;2022-11-20T11:59:24;3.70;;;3.20;;
10315;SDS011;5203;48.976;8.306;2022-11-20T12:02:02;5.47;;;2.90;;
10315;SDS011;5203;48.976;8.306;2022-11-20T12:04:46;2.97;;;2.70;;
10315;SDS011;5203;48.976;8.306;2022-11-20T12:07:22;3.77;;;2.60;;
10315;SDS011;5203;48.976;8.306;2022-11-20T12:09:53;4.57;;;2.70;;
10315;SDS011;5203;48.976;8.306;2022-11-20T12:12:27;3.17;;;2.80;;
10315;SDS011;5203;48.976;8.306;2022-11-20T12:15:07;2.73;;;2.33;;
10315;SDS011;5203;48.976;8.306;2022-11-20T12:17:36;3.57;;;2.30;;
10315;SDS011;5203;48.976;8.306;2022-11-20T12:20:02;5.23;;;2.77;;
10315;SDS011;5203;48.976;8.306;2022-11-20T12:22:43;2.53;;;2.33;;
10315;SDS011;5203;48.976;8.306;2022-11-20T12:25:34;3.83;;;2.70;;
10315;SDS011;5203;48.976;8.306;2022-11-20T12:30:33;2.93;;;2.50;;
10315;SDS011;5203;48.976;8.306;2022-11-20T12:41:51;4.17;;;2.17;;
10315;SDS011;5203;48.976;8.306;2022-11-20T12:47:42;2.77;;;2.10;;
10315;SDS011;5203;48.976;8.306;2022-11-20T12:52:57;3.07;;;1.97;;
10315;SDS011;5203;48.976;8.306;2022-11-20T12:58:06;5.00;;;2.30;;
10315;SDS011;5203;48.976;8.306;2022-11-20T13:00:41;2.57;;;2.20;;
10315;SDS011;5203;48.976;8.306;2022-11-20T13:03:25;2.43;;;2.00;;
10315;SDS011;5203;48.976;8.306;2022-11-20T13:08:33;2.80;;;2.03;;
10315;SDS011;5203;48.976;8.306;2022-11-20T13:11:03;5.27;;;2.33;;
10315;SDS011;5203;48.976;8.306;2022-11-20T13:13:46;3.90;;;2.10;;
10315;SDS011;5203;48.976;8.306;2022-11-20T13:19:02;3.77;;;1.90;;
10315;SDS011;5203;48.976;8.306;2022-11-20T13:21:37;2.73;;;1.97;;
10315;SDS011;5203;48.976;8.306;2022-11-20T13:27:04;4.03;;;2.13;;
10315;SDS011;5203;48.976;8.306;2022-11-20T13:29:33;2.33;;;1.87;;
10315;SDS011;5203;48.976;8.306;2022-11-20T13:32:12;5.37;;;2.00;;
10315;SDS011;5203;48.976;8.306;2022-11-20T13:40:50;3.77;;;2.27;;
10315;SDS011;5203;48.976;8.306;2022-11-20T13:45:55;3.00;;;2.20;;
10315;SDS011;5203;48.976;8.306;2022-11-20T13:48:22;3.57;;;2.10;;
10315;SDS011;5203;48.976;8.306;2022-11-20T14:01:57;5.43;;;1.93;;
10315;SDS011;5203;48.976;8.306;2022-11-20T14:04:26;2.60;;;1.93;;
10315;SDS011;5203;48.976;8.306;2022-11-20T14:07:00;2.33;;;1.90;;
10315;SDS011;5203;48.976;8.306;2022-11-20T14:09:27;2.27;;;1.83;;
10315;SDS011;5203;48.976;8.306;2022-11-20T14:11:54;3.07;;;2.00;;
10315;SDS011;5203;48.976;8.306;2022-11-20T14:14:21;4.60;;;2.23;;
10315;SDS011;5203;48.976;8.306;2022-11-20T14:16:48;3.13;;;2.20;;
10315;SDS011;5203;48.976;8.306;2022-11-20T14:21:46;4.67;;;2.10;;
10315;SDS011;5203;48.976;8.306;2022-11-20T14:24:23;2.40;;;2.20;;
10315;SDS011;5203;48.976;8.306;2022-11-20T14:26:49;4.07;;;2.43;;
10315;SDS011;5203;48.976;8.306;2022-11-20T14:29:21;3.13;;;1.90;;
10315;SDS011;5203;48.976;8.306;2022-11-20T14:31:52;4.20;;;2.60;;
10315;SDS011;5203;48.976;8.306;2022-11-20T14:34:20;5.27;;;2.57;;
10315;SDS011;5203;48.976;8.306;2022-11-20T14:36:55;1.93;;;1.83;;
10315;SDS011;5203;48.976;8.306;2022-11-20T14:39:42;2.13;;;1.93;;
10315;SDS011;5203;48.976;8.306;2022-11-20T14:42:17;3.70;;;2.03;;
10315;SDS011;5203;48.976;8.306;2022-11-20T14:44:44;4.47;;;2.40;;
10315;SDS011;5203;48.976;8.306;2022-11-20T14:47:17;2.63;;;2.43;;
10315;SDS011;5203;48.976;8.306;2022-11-20T14:49:46;2.77;;;2.27;;
10315;SDS011;5203;48.976;8.306;2022-11-20T14:52:14;2.60;;;2.30;;
10315;SDS011;5203;48.976;8.306;2022-11-20T14:54:44;2.73;;;2.53;;
10315;SDS011;5203;48.976;8.306;2022-11-20T14:57:33;3.60;;;2.80;;
10315;SDS011;5203;48.976;8.306;2022-11-20T15:00:17;5.17;;;2.90;;
10315;SDS011;5203;48.976;8.306;2022-11-20T15:02:45;4.20;;;2.60;;
10315;SDS011;5203;48.976;8.306;2022-11-20T15:05:13;3.13;;;2.57;;
10315;SDS011;5203;48.976;8.306;2022-11-20T15:07:41;4.33;;;2.77;;
10315;SDS011;5203;48.976;8.306;2022-11-20T15:10:12;3.10;;;2.27;;
10315;SDS011;5203;48.976;8.306;2022-11-20T15:12:47;2.50;;;2.30;;
10315;SDS011;5203;48.976;8.306;2022-11-20T15:15:15;3.70;;;2.30;;
10315;SDS011;5203;48.976;8.306;2022-11-20T15:17:45;2.30;;;2.10;;
10315;SDS011;5203;48.976;8.306;2022-11-20T15:20:12;3.30;;;2.40;;
10315;SDS011;5203;48.976;8.306;2022-11-20T15:22:40;3.10;;;2.90;;
10315;SDS011;5203;48.976;8.306;2022-11-20T15:25:15;4.37;;;2.90;;
10315;SDS011;5203;48.976;8.306;2022-11-20T15:27:42;4.57;;;2.40;;
10315;SDS011;5203;48.976;8.306;2022-11-20T15:30:13;2.60;;;2.40;;
10315;SDS011;5203;48.976;8.306;2022-11-20T15:32:41;4.33;;;2.50;;
10315;SDS011;5203;48.976;8.306;2022-11-20T15:35:07;2.70;;;2.20;;
10315;SDS011;5203;48.976;8.306;2022-11-20T15:37:34;3.10;;;2.70;;
10315;SDS011;5203;48.976;8.306;2022-11-20T15:40:00;2.27;;;2.07;;
10315;SDS011;5203;48.976;8.306;2022-11-20T15:42:26;2.47;;;2.20;;
10315;SDS011;5203;48.976;8.306;2022-11-20T15:44:52;3.73;;;2.50;;
10315;SDS011;5203;48.976;8.306;2022-11-20T15:47:18;2.63;;;2.43;;
10315;SDS011;5203;48.976;8.306;2022-11-20T15:49:48;3.20;;;2.90;;
10315;SDS011;5203;48.976;8.306;2022-11-20T15:52:13;3.33;;;2.73;;
10315;SDS011;5203;48.976;8.306;2022-11-20T15:54:40;4.13;;;3.07;;
10315;SDS011;5203;48.976;8.306;2022-11-20T15:57:05;3.93;;;2.40;;
10315;SDS011;5203;48.976;8.306;2022-11-20T15:59:31;2.50;;;2.33;;
10315;SDS011;5203;48.976;8.306;2022-11-20T16:01:57;4.23;;;3.83;;
10315;SDS011;5203;48.976;8.306;2022-11-20T16:04:23;2.90;;;2.60;;
10315;SDS011;5203;48.976;8.306;2022-11-20T16:06:48;6.97;;;3.17;;
10315;SDS011;5203;48.976;8.306;2022-11-20T16:09:14;2.50;;;2.30;;
10315;SDS011;5203;48.976;8.306;2022-11-20T16:11:40;7.57;;;3.00;;
10315;SDS011;5203;48.976;8.306;2022-11-20T16:14:06;3.40;;;2.73;;
10315;SDS011;5203;48.976;8.306;2022-11-20T16:16:53;5.80;;;5.20;;
10315;SDS011;5203;48.976;8.306;2022-11-20T16:19:18;3.77;;;3.47;;
10315;SDS011;5203;48.976;8.306;2022-11-20T16:21:44;3.23;;;2.43;;
10315;SDS011;5203;48.976;8.306;2022-11-20T16:24:11;3.10;;;2.60;;
10315;SDS011;5203;48.976;8.306;2022-11-20T16:26:38;3.17;;;2.37;;
10315;SDS011;5203;48.976;8.306;2022-11-20T16:29:04;4.00;;;2.60;;
10315;SDS011;5203;48.976;8.306;2022-11-20T16:31:32;4.73;;;2.80;;
10315;SDS011;5203;48.976;8.306;2022-11-20T16:33:59;3.70;;;2.47;;
10315;SDS011;5203;48.976;8.306;2022-11-20T16:36:27;3.67;;;2.60;;
10315;SDS011;5203;48.976;8.306;2022-11-20T16:38:57;5.50;;;5.00;;
10315;SDS011;5203;48.976;8.306;2022-11-20T16:41:26;3.67;;;2.53;;
10315;SDS011;5203;48.976;8.306;2022-11-20T16:43:56;3.80;;;2.67;;
10315;SDS011;5203;48.976;8.306;2022-11-20T16:46:25;6.60;;;2.77;;
10315;SDS011;5203;48.976;8.306;2022-11-20T16:48:56;3.50;;;2.20;;
10315;SDS011;5203;48.976;8.306;2022-11-20T16:51:23;4.57;;;2.57;;
10315;SDS011;5203;48.976;8.306;2022-11-20T16:53:50;4.30;;;2.47;;
10315;SDS011;5203;48.976;8.306;2022-11-20T16:56:18;5.43;;;3.00;;
10315;SDS011;5203;48.976;8.306;2022-11-20T16:58:46;4.57;;;2.80;;